Escola de vôo
Dean International

Program Pricing

Bem Vindos a Dean International

Durante mais de 20 anos a Dean International educou mais de 7,000 pilotos de todas as partes do mundo. Oferecendo treinamento de grande qualidade, uma equipe muito amigável, uma ampla variedade de aviões e sempre procurando melhorar, conseguimos virar uma das maiores e mais prestigiadas escola de aviação aprovada pelo FAA. Situada no Aeroporto Executivo Kendall-Tamiami em Miami, Florida, nossa escola de aviação oferece um ambiente ideal para aprender a voar o ano inteiro e estamos bem equipados para prestar serviços aos alunos da comunidade geral de aviação. Visite-nos ou contacte-nos hoje para obter mais informações sobre nossos diferentes programas e serviços ou leia mais sobre nossos programas se você é um estudante internacional interessado em unir-se a nossa escola.
Tiempo Local
TAF FOR KTMB (Issued: Thu, June 30th 2016 10:27 PM UTC)
TAF
      AMD KTMB 302226Z 3022/0118 VRB15G25KT 3SM TSRA SCT018CB BKN025 OVC060
      FM302300 VRB06KT P6SM VCTS SCT030CB BKN050 BKN080
      FM010200 VRB03KT P6SM FEW025 BKN250
      FM011600 15008KT P6SM VCTS SCT030CB
     
METAR FOR KTMB (Issued: Thu, June 30th 2016 11:53 PM UTC):
KTMB 302353Z 33005KT 10SM BKN100 BKN120 24/24 A3003 RMK AO2 RAE39 SLP170 P0003 60096 T02440244 10322 20239 50020

This weather information is provided by the National Weather Service.
It is automatically refreshed every three minutes.
TAF FOR KHST (Issued: Fri, July 1st 2016 12:06 AM UTC)
TAF KHST 010000Z 0100/0206 15006KT 9999 FEW070 FEW210 QNH2998INS
      BECMG 0114/0115 13009KT 9999 SCT040 SCT100 QNH3003INS
      TEMPO 0115/0124 15020G25KT 8000 -TSRA BKN030CB
      BECMG 0201/0202 18009KT 9999 FEW040 FEW100 QNH3009INS TX32/0121Z TN24/0112Z
     
METAR FOR KHST (Issued: Thu, June 30th 2016 11:58 PM UTC):
KHST 302358Z AUTO 33003KT 10SM FEW110 26/23 A3003 RMK AO2 LTG DSNT SW SLP172 60001 T02580227 10325 20258

This weather information is provided by the National Weather Service.
It is automatically refreshed every three minutes.
TAF FOR KOPF (Issued: Thu, June 30th 2016 9:06 PM UTC)
TAF
      AMD KOPF 302102Z 3021/0118 13011KT P6SM VCTS SCT035CB SCT060 BKN250
      TEMPO 3021/3023 VRB15G25KT 3SM TSRA SCT018CB BKN025 OVC060
      FM302300 VRB06KT P6SM VCTS SCT020CB BKN080 OVC150
      FM010100 VRB03KT P6SM VCSH SCT025 BKN250
      FM011600 15008KT P6SM VCTS SCT030CB
     
METAR FOR KOPF (Issued: Thu, June 30th 2016 11:53 PM UTC):
KOPF 302353Z 30007KT 10SM CLR 26/21 A3005 RMK AO2 LTG DSNT W SLP176 60000 T02560211 10328 20256 51023

This weather information is provided by the National Weather Service.
It is automatically refreshed every three minutes.
TAF FOR KMIA (Issued: Thu, June 30th 2016 9:59 PM UTC)
TAF
      AMD KMIA 302059Z 3021/0118 14011G18KT P6SM VCTS SCT030CB SCT100 BKN250
      TEMPO 3021/3023 VRB15G25KT 3SM TSRA SCT018CB BKN025 OVC060
      FM010100 VRB03KT P6SM VCSH SCT025 BKN250
      FM011600 15008KT P6SM VCTS SCT030CB
     
METAR FOR KMIA (Issued: Thu, June 30th 2016 11:53 PM UTC):
KMIA 302353Z 26003KT 10SM FEW030 SCT090 BKN130 BKN250 26/23 A3004 RMK AO2 SLP174 CB DSNT NE AND E AND SE AND NW 60000 T02560228 10317 20244 51023

This weather information is provided by the National Weather Service.
It is automatically refreshed every three minutes.
Desenhado por Ariel Llizo
© Dean International Inc. 2012